sensor_id;sensor_type;location;lat;lon;timestamp;P1;durP1;ratioP1;P2;durP2;ratioP2
79539;SDS011;68991;52.122;5.406;2023-06-14T00:02:20;3.80;;;2.30;;
79539;SDS011;68991;52.122;5.406;2023-06-14T00:04:47;4.03;;;2.55;;
79539;SDS011;68991;52.122;5.406;2023-06-14T00:07:14;3.72;;;2.30;;
79539;SDS011;68991;52.122;5.406;2023-06-14T00:09:43;3.45;;;2.03;;
79539;SDS011;68991;52.122;5.406;2023-06-14T00:12:09;3.42;;;2.22;;
79539;SDS011;68991;52.122;5.406;2023-06-14T00:14:36;4.60;;;2.10;;
79539;SDS011;68991;52.122;5.406;2023-06-14T00:17:02;5.03;;;2.38;;
79539;SDS011;68991;52.122;5.406;2023-06-14T00:19:29;3.38;;;2.20;;
79539;SDS011;68991;52.122;5.406;2023-06-14T00:21:59;3.38;;;2.08;;
79539;SDS011;68991;52.122;5.406;2023-06-14T00:24:25;3.08;;;2.00;;
79539;SDS011;68991;52.122;5.406;2023-06-14T00:26:52;3.33;;;2.65;;
79539;SDS011;68991;52.122;5.406;2023-06-14T00:29:18;3.60;;;2.30;;
79539;SDS011;68991;52.122;5.406;2023-06-14T00:31:45;3.30;;;1.98;;
79539;SDS011;68991;52.122;5.406;2023-06-14T00:34:11;3.58;;;2.35;;
79539;SDS011;68991;52.122;5.406;2023-06-14T00:36:38;3.88;;;2.10;;
79539;SDS011;68991;52.122;5.406;2023-06-14T00:39:04;4.10;;;2.33;;
79539;SDS011;68991;52.122;5.406;2023-06-14T00:41:30;3.22;;;2.03;;
79539;SDS011;68991;52.122;5.406;2023-06-14T00:43:57;5.00;;;2.30;;
79539;SDS011;68991;52.122;5.406;2023-06-14T00:46:23;3.55;;;2.38;;
79539;SDS011;68991;52.122;5.406;2023-06-14T00:48:50;3.88;;;2.50;;
79539;SDS011;68991;52.122;5.406;2023-06-14T00:51:17;3.42;;;2.50;;
79539;SDS011;68991;52.122;5.406;2023-06-14T00:53:44;3.90;;;2.38;;
79539;SDS011;68991;52.122;5.406;2023-06-14T00:56:13;2.53;;;1.80;;
79539;SDS011;68991;52.122;5.406;2023-06-14T00:58:41;5.22;;;2.20;;
79539;SDS011;68991;52.122;5.406;2023-06-14T01:01:08;4.32;;;2.38;;
79539;SDS011;68991;52.122;5.406;2023-06-14T01:03:34;5.85;;;2.40;;
79539;SDS011;68991;52.122;5.406;2023-06-14T01:09:01;3.00;;;2.22;;
79539;SDS011;68991;52.122;5.406;2023-06-14T01:11:41;4.13;;;2.45;;
79539;SDS011;68991;52.122;5.406;2023-06-14T01:14:15;3.22;;;2.22;;
79539;SDS011;68991;52.122;5.406;2023-06-14T01:16:42;2.97;;;2.05;;
79539;SDS011;68991;52.122;5.406;2023-06-14T01:19:11;2.70;;;2.00;;
79539;SDS011;68991;52.122;5.406;2023-06-14T01:21:40;3.33;;;2.20;;
79539;SDS011;68991;52.122;5.406;2023-06-14T01:24:08;3.70;;;1.95;;
79539;SDS011;68991;52.122;5.406;2023-06-14T01:26:37;4.68;;;2.00;;
79539;SDS011;68991;52.122;5.406;2023-06-14T01:29:13;3.00;;;2.20;;
79539;SDS011;68991;52.122;5.406;2023-06-14T01:31:43;3.30;;;2.13;;
79539;SDS011;68991;52.122;5.406;2023-06-14T01:34:11;3.10;;;2.10;;
79539;SDS011;68991;52.122;5.406;2023-06-14T01:36:37;3.25;;;2.00;;
79539;SDS011;68991;52.122;5.406;2023-06-14T01:39:06;2.97;;;2.10;;
79539;SDS011;68991;52.122;5.406;2023-06-14T01:41:34;4.65;;;2.17;;
79539;SDS011;68991;52.122;5.406;2023-06-14T01:44:01;2.55;;;2.03;;
79539;SDS011;68991;52.122;5.406;2023-06-14T01:46:29;3.63;;;2.20;;
79539;SDS011;68991;52.122;5.406;2023-06-14T01:48:56;4.63;;;2.67;;
79539;SDS011;68991;52.122;5.406;2023-06-14T01:51:22;4.07;;;2.45;;
79539;SDS011;68991;52.122;5.406;2023-06-14T01:53:49;4.30;;;2.17;;
79539;SDS011;68991;52.122;5.406;2023-06-14T01:56:15;4.50;;;2.47;;
79539;SDS011;68991;52.122;5.406;2023-06-14T01:58:42;4.35;;;2.28;;
79539;SDS011;68991;52.122;5.406;2023-06-14T02:01:09;2.97;;;1.95;;
79539;SDS011;68991;52.122;5.406;2023-06-14T02:03:37;5.47;;;2.25;;
79539;SDS011;68991;52.122;5.406;2023-06-14T02:06:04;4.70;;;1.70;;
79539;SDS011;68991;52.122;5.406;2023-06-14T02:08:31;5.15;;;2.42;;
79539;SDS011;68991;52.122;5.406;2023-06-14T02:10:58;3.03;;;1.90;;
79539;SDS011;68991;52.122;5.406;2023-06-14T02:13:24;3.38;;;2.10;;
79539;SDS011;68991;52.122;5.406;2023-06-14T02:15:51;4.95;;;2.10;;
79539;SDS011;68991;52.122;5.406;2023-06-14T02:18:21;4.35;;;2.20;;
79539;SDS011;68991;52.122;5.406;2023-06-14T02:20:47;3.75;;;2.13;;
79539;SDS011;68991;52.122;5.406;2023-06-14T02:23:14;3.03;;;2.10;;
79539;SDS011;68991;52.122;5.406;2023-06-14T02:25:40;5.70;;;2.22;;
79539;SDS011;68991;52.122;5.406;2023-06-14T02:28:07;3.40;;;2.00;;
79539;SDS011;68991;52.122;5.406;2023-06-14T02:30:34;4.38;;;2.28;;
79539;SDS011;68991;52.122;5.406;2023-06-14T02:33:00;3.70;;;2.42;;
79539;SDS011;68991;52.122;5.406;2023-06-14T02:35:27;3.65;;;2.28;;
79539;SDS011;68991;52.122;5.406;2023-06-14T02:37:53;2.90;;;1.98;;
79539;SDS011;68991;52.122;5.406;2023-06-14T02:40:20;3.63;;;2.15;;
79539;SDS011;68991;52.122;5.406;2023-06-14T02:42:47;3.08;;;2.10;;
79539;SDS011;68991;52.122;5.406;2023-06-14T02:45:13;5.45;;;2.20;;
79539;SDS011;68991;52.122;5.406;2023-06-14T02:47:39;3.78;;;2.05;;
79539;SDS011;68991;52.122;5.406;2023-06-14T02:50:06;3.28;;;2.13;;
79539;SDS011;68991;52.122;5.406;2023-06-14T02:52:34;3.50;;;1.90;;
79539;SDS011;68991;52.122;5.406;2023-06-14T02:55:00;6.07;;;2.33;;
79539;SDS011;68991;52.122;5.406;2023-06-14T02:57:27;3.28;;;1.83;;
79539;SDS011;68991;52.122;5.406;2023-06-14T02:59:53;3.15;;;1.80;;
79539;SDS011;68991;52.122;5.406;2023-06-14T03:02:19;3.42;;;1.90;;
79539;SDS011;68991;52.122;5.406;2023-06-14T03:04:46;3.22;;;2.05;;
79539;SDS011;68991;52.122;5.406;2023-06-14T03:07:12;3.75;;;1.98;;
79539;SDS011;68991;52.122;5.406;2023-06-14T03:09:40;2.95;;;2.10;;
79539;SDS011;68991;52.122;5.406;2023-06-14T03:12:06;5.43;;;2.33;;
79539;SDS011;68991;52.122;5.406;2023-06-14T03:14:34;4.00;;;2.20;;
79539;SDS011;68991;52.122;5.406;2023-06-14T03:17:01;4.10;;;2.17;;
79539;SDS011;68991;52.122;5.406;2023-06-14T03:19:28;3.67;;;2.28;;
79539;SDS011;68991;52.122;5.406;2023-06-14T03:21:55;3.10;;;1.92;;
79539;SDS011;68991;52.122;5.406;2023-06-14T03:24:26;2.78;;;2.00;;
79539;SDS011;68991;52.122;5.406;2023-06-14T03:26:55;2.30;;;1.73;;
79539;SDS011;68991;52.122;5.406;2023-06-14T03:29:23;4.15;;;2.05;;
79539;SDS011;68991;52.122;5.406;2023-06-14T03:31:59;3.42;;;1.95;;
79539;SDS011;68991;52.122;5.406;2023-06-14T03:34:27;4.53;;;2.05;;
79539;SDS011;68991;52.122;5.406;2023-06-14T03:36:54;3.08;;;1.90;;
79539;SDS011;68991;52.122;5.406;2023-06-14T03:39:21;3.55;;;1.90;;
79539;SDS011;68991;52.122;5.406;2023-06-14T03:41:47;3.22;;;2.05;;
79539;SDS011;68991;52.122;5.406;2023-06-14T03:44:15;4.82;;;2.90;;
79539;SDS011;68991;52.122;5.406;2023-06-14T03:46:44;5.30;;;2.47;;
79539;SDS011;68991;52.122;5.406;2023-06-14T03:49:11;4.10;;;2.92;;
79539;SDS011;68991;52.122;5.406;2023-06-14T03:51:39;4.20;;;2.42;;
79539;SDS011;68991;52.122;5.406;2023-06-14T03:54:06;3.40;;;2.35;;
79539;SDS011;68991;52.122;5.406;2023-06-14T03:56:53;5.60;;;2.55;;
79539;SDS011;68991;52.122;5.406;2023-06-14T03:59:19;5.05;;;2.60;;
79539;SDS011;68991;52.122;5.406;2023-06-14T04:01:46;5.43;;;2.42;;
79539;SDS011;68991;52.122;5.406;2023-06-14T04:04:13;3.42;;;2.28;;
79539;SDS011;68991;52.122;5.406;2023-06-14T04:06:39;6.93;;;2.70;;
79539;SDS011;68991;52.122;5.406;2023-06-14T04:09:07;4.65;;;2.15;;
79539;SDS011;68991;52.122;5.406;2023-06-14T04:11:33;4.55;;;2.50;;
79539;SDS011;68991;52.122;5.406;2023-06-14T04:14:01;5.38;;;2.47;;
79539;SDS011;68991;52.122;5.406;2023-06-14T04:16:28;4.22;;;2.30;;
79539;SDS011;68991;52.122;5.406;2023-06-14T04:18:55;5.07;;;2.63;;
79539;SDS011;68991;52.122;5.406;2023-06-14T04:21:24;3.60;;;2.40;;
79539;SDS011;68991;52.122;5.406;2023-06-14T04:23:52;3.72;;;2.15;;
79539;SDS011;68991;52.122;5.406;2023-06-14T04:26:20;3.92;;;2.20;;
79539;SDS011;68991;52.122;5.406;2023-06-14T04:28:52;5.18;;;2.35;;
79539;SDS011;68991;52.122;5.406;2023-06-14T04:31:19;4.57;;;2.20;;
79539;SDS011;68991;52.122;5.406;2023-06-14T04:33:47;5.72;;;2.45;;
79539;SDS011;68991;52.122;5.406;2023-06-14T04:36:16;4.47;;;2.38;;
79539;SDS011;68991;52.122;5.406;2023-06-14T04:38:44;2.97;;;2.20;;
79539;SDS011;68991;52.122;5.406;2023-06-14T04:41:12;4.35;;;2.10;;
79539;SDS011;68991;52.122;5.406;2023-06-14T04:43:38;4.63;;;2.30;;
79539;SDS011;68991;52.122;5.406;2023-06-14T04:46:05;5.07;;;2.13;;
79539;SDS011;68991;52.122;5.406;2023-06-14T04:48:37;4.70;;;2.20;;
79539;SDS011;68991;52.122;5.406;2023-06-14T04:51:07;7.85;;;2.42;;
79539;SDS011;68991;52.122;5.406;2023-06-14T04:53:34;7.50;;;2.55;;
79539;SDS011;68991;52.122;5.406;2023-06-14T04:56:00;7.35;;;2.58;;
79539;SDS011;68991;52.122;5.406;2023-06-14T04:58:27;4.00;;;2.13;;
79539;SDS011;68991;52.122;5.406;2023-06-14T05:00:55;3.55;;;2.50;;
79539;SDS011;68991;52.122;5.406;2023-06-14T05:03:22;5.35;;;2.50;;
79539;SDS011;68991;52.122;5.406;2023-06-14T05:05:50;3.88;;;2.60;;
79539;SDS011;68991;52.122;5.406;2023-06-14T05:08:17;3.17;;;2.05;;
79539;SDS011;68991;52.122;5.406;2023-06-14T05:10:43;8.10;;;2.70;;
79539;SDS011;68991;52.122;5.406;2023-06-14T05:13:09;6.97;;;2.45;;
79539;SDS011;68991;52.122;5.406;2023-06-14T05:15:37;5.10;;;2.25;;
79539;SDS011;68991;52.122;5.406;2023-06-14T05:18:04;5.85;;;2.20;;
79539;SDS011;68991;52.122;5.406;2023-06-14T05:20:30;2.92;;;1.73;;
79539;SDS011;68991;52.122;5.406;2023-06-14T05:22:57;4.22;;;2.25;;
79539;SDS011;68991;52.122;5.406;2023-06-14T05:25:24;4.60;;;2.00;;
79539;SDS011;68991;52.122;5.406;2023-06-14T05:27:51;4.75;;;2.20;;
79539;SDS011;68991;52.122;5.406;2023-06-14T05:30:17;4.85;;;1.80;;
79539;SDS011;68991;52.122;5.406;2023-06-14T05:32:44;3.58;;;1.80;;
79539;SDS011;68991;52.122;5.406;2023-06-14T05:35:11;3.13;;;2.05;;
79539;SDS011;68991;52.122;5.406;2023-06-14T05:37:38;3.92;;;2.00;;
79539;SDS011;68991;52.122;5.406;2023-06-14T05:40:05;3.00;;;1.90;;
79539;SDS011;68991;52.122;5.406;2023-06-14T05:42:32;3.78;;;2.05;;
79539;SDS011;68991;52.122;5.406;2023-06-14T05:44:59;4.43;;;2.00;;
79539;SDS011;68991;52.122;5.406;2023-06-14T05:47:26;2.50;;;1.90;;
79539;SDS011;68991;52.122;5.406;2023-06-14T05:49:54;4.43;;;1.88;;
79539;SDS011;68991;52.122;5.406;2023-06-14T05:52:21;3.67;;;2.00;;
79539;SDS011;68991;52.122;5.406;2023-06-14T05:54:47;7.82;;;2.03;;
79539;SDS011;68991;52.122;5.406;2023-06-14T05:57:14;4.22;;;1.83;;
79539;SDS011;68991;52.122;5.406;2023-06-14T05:59:41;3.10;;;2.15;;
79539;SDS011;68991;52.122;5.406;2023-06-14T06:02:07;4.90;;;2.10;;
79539;SDS011;68991;52.122;5.406;2023-06-14T06:04:34;4.65;;;2.00;;
79539;SDS011;68991;52.122;5.406;2023-06-14T06:07:01;3.88;;;2.15;;
79539;SDS011;68991;52.122;5.406;2023-06-14T06:09:27;2.83;;;2.08;;
79539;SDS011;68991;52.122;5.406;2023-06-14T06:11:54;5.32;;;2.10;;
79539;SDS011;68991;52.122;5.406;2023-06-14T06:14:20;3.58;;;2.00;;
79539;SDS011;68991;52.122;5.406;2023-06-14T06:16:47;4.75;;;2.10;;
79539;SDS011;68991;52.122;5.406;2023-06-14T06:19:14;4.28;;;1.50;;
79539;SDS011;68991;52.122;5.406;2023-06-14T06:21:40;3.83;;;1.95;;
79539;SDS011;68991;52.122;5.406;2023-06-14T06:24:07;4.82;;;2.10;;
79539;SDS011;68991;52.122;5.406;2023-06-14T06:26:33;3.08;;;1.85;;
79539;SDS011;68991;52.122;5.406;2023-06-14T06:29:00;3.40;;;2.00;;
79539;SDS011;68991;52.122;5.406;2023-06-14T06:31:27;3.55;;;1.85;;
79539;SDS011;68991;52.122;5.406;2023-06-14T06:33:54;3.22;;;1.90;;
79539;SDS011;68991;52.122;5.406;2023-06-14T06:36:21;3.80;;;1.98;;
79539;SDS011;68991;52.122;5.406;2023-06-14T06:38:48;4.05;;;1.70;;
79539;SDS011;68991;52.122;5.406;2023-06-14T06:41:14;3.58;;;2.08;;
79539;SDS011;68991;52.122;5.406;2023-06-14T06:43:41;4.53;;;1.88;;
79539;SDS011;68991;52.122;5.406;2023-06-14T06:46:07;3.10;;;1.80;;
79539;SDS011;68991;52.122;5.406;2023-06-14T06:48:34;3.00;;;2.15;;
79539;SDS011;68991;52.122;5.406;2023-06-14T06:51:01;4.15;;;2.25;;
79539;SDS011;68991;52.122;5.406;2023-06-14T06:53:27;4.35;;;1.90;;
79539;SDS011;68991;52.122;5.406;2023-06-14T06:56:10;4.32;;;1.80;;
79539;SDS011;68991;52.122;5.406;2023-06-14T06:58:37;6.28;;;1.98;;
79539;SDS011;68991;52.122;5.406;2023-06-14T07:01:03;3.33;;;2.20;;
79539;SDS011;68991;52.122;5.406;2023-06-14T07:03:29;4.60;;;2.83;;
79539;SDS011;68991;52.122;5.406;2023-06-14T07:05:56;4.80;;;2.20;;
79539;SDS011;68991;52.122;5.406;2023-06-14T07:08:23;3.22;;;2.00;;
79539;SDS011;68991;52.122;5.406;2023-06-14T07:10:49;2.92;;;2.08;;
79539;SDS011;68991;52.122;5.406;2023-06-14T07:13:16;4.00;;;2.00;;
79539;SDS011;68991;52.122;5.406;2023-06-14T07:15:42;4.22;;;1.92;;
79539;SDS011;68991;52.122;5.406;2023-06-14T07:18:09;5.07;;;2.05;;
79539;SDS011;68991;52.122;5.406;2023-06-14T07:20:35;7.07;;;2.25;;
79539;SDS011;68991;52.122;5.406;2023-06-14T07:23:04;6.57;;;2.03;;
79539;SDS011;68991;52.122;5.406;2023-06-14T07:25:31;5.50;;;1.98;;
79539;SDS011;68991;52.122;5.406;2023-06-14T07:27:58;2.95;;;1.75;;
79539;SDS011;68991;52.122;5.406;2023-06-14T07:30:24;2.72;;;1.90;;
79539;SDS011;68991;52.122;5.406;2023-06-14T07:32:53;3.40;;;2.00;;
79539;SDS011;68991;52.122;5.406;2023-06-14T07:35:20;4.68;;;2.10;;
79539;SDS011;68991;52.122;5.406;2023-06-14T07:37:47;4.65;;;2.42;;
79539;SDS011;68991;52.122;5.406;2023-06-14T07:40:14;4.60;;;1.90;;
79539;SDS011;68991;52.122;5.406;2023-06-14T07:42:40;3.10;;;1.90;;
79539;SDS011;68991;52.122;5.406;2023-06-14T07:45:07;6.05;;;2.53;;
79539;SDS011;68991;52.122;5.406;2023-06-14T07:47:34;4.07;;;2.50;;
79539;SDS011;68991;52.122;5.406;2023-06-14T07:50:00;3.03;;;1.90;;
79539;SDS011;68991;52.122;5.406;2023-06-14T07:52:27;3.15;;;2.10;;
79539;SDS011;68991;52.122;5.406;2023-06-14T07:54:54;4.13;;;2.42;;
79539;SDS011;68991;52.122;5.406;2023-06-14T07:57:20;2.95;;;2.10;;
79539;SDS011;68991;52.122;5.406;2023-06-14T07:59:47;3.53;;;2.10;;
79539;SDS011;68991;52.122;5.406;2023-06-14T08:02:14;3.63;;;2.00;;
79539;SDS011;68991;52.122;5.406;2023-06-14T08:04:40;3.45;;;2.08;;
79539;SDS011;68991;52.122;5.406;2023-06-14T08:07:08;3.28;;;1.77;;
79539;SDS011;68991;52.122;5.406;2023-06-14T08:09:35;2.83;;;1.73;;
79539;SDS011;68991;52.122;5.406;2023-06-14T08:12:04;8.02;;;2.10;;
79539;SDS011;68991;52.122;5.406;2023-06-14T08:14:33;3.17;;;1.65;;
79539;SDS011;68991;52.122;5.406;2023-06-14T08:17:00;2.25;;;1.63;;
79539;SDS011;68991;52.122;5.406;2023-06-14T08:19:27;4.57;;;1.85;;
79539;SDS011;68991;52.122;5.406;2023-06-14T08:21:54;3.70;;;2.03;;
79539;SDS011;68991;52.122;5.406;2023-06-14T08:24:21;5.63;;;2.03;;
79539;SDS011;68991;52.122;5.406;2023-06-14T08:26:50;3.40;;;1.80;;
79539;SDS011;68991;52.122;5.406;2023-06-14T08:29:17;5.30;;;1.70;;
79539;SDS011;68991;52.122;5.406;2023-06-14T08:31:44;3.55;;;1.77;;
79539;SDS011;68991;52.122;5.406;2023-06-14T08:34:10;3.33;;;1.80;;
79539;SDS011;68991;52.122;5.406;2023-06-14T08:36:37;2.28;;;1.70;;
79539;SDS011;68991;52.122;5.406;2023-06-14T08:39:03;2.33;;;2.00;;
79539;SDS011;68991;52.122;5.406;2023-06-14T08:41:30;3.15;;;1.90;;
79539;SDS011;68991;52.122;5.406;2023-06-14T08:43:57;2.92;;;1.63;;
79539;SDS011;68991;52.122;5.406;2023-06-14T08:46:25;3.08;;;1.92;;
79539;SDS011;68991;52.122;5.406;2023-06-14T08:48:54;3.47;;;1.70;;
79539;SDS011;68991;52.122;5.406;2023-06-14T08:51:23;2.88;;;1.80;;
79539;SDS011;68991;52.122;5.406;2023-06-14T08:53:54;2.80;;;1.92;;
79539;SDS011;68991;52.122;5.406;2023-06-14T08:56:25;3.78;;;1.60;;
79539;SDS011;68991;52.122;5.406;2023-06-14T08:58:54;2.90;;;1.98;;
79539;SDS011;68991;52.122;5.406;2023-06-14T09:01:22;2.85;;;1.80;;
79539;SDS011;68991;52.122;5.406;2023-06-14T09:03:50;3.55;;;1.92;;
79539;SDS011;68991;52.122;5.406;2023-06-14T09:06:17;2.53;;;1.63;;
79539;SDS011;68991;52.122;5.406;2023-06-14T09:08:45;3.65;;;2.03;;
79539;SDS011;68991;52.122;5.406;2023-06-14T09:11:16;2.85;;;1.70;;
79539;SDS011;68991;52.122;5.406;2023-06-14T09:13:45;2.53;;;1.85;;
79539;SDS011;68991;52.122;5.406;2023-06-14T09:16:12;2.53;;;1.90;;
79539;SDS011;68991;52.122;5.406;2023-06-14T09:18:40;2.35;;;1.80;;
79539;SDS011;68991;52.122;5.406;2023-06-14T09:23:46;2.88;;;1.90;;
79539;SDS011;68991;52.122;5.406;2023-06-14T09:26:15;2.85;;;1.75;;
79539;SDS011;68991;52.122;5.406;2023-06-14T09:28:44;6.35;;;1.48;;
79539;SDS011;68991;52.122;5.406;2023-06-14T09:31:15;4.18;;;2.10;;
79539;SDS011;68991;52.122;5.406;2023-06-14T09:33:44;2.95;;;1.77;;
79539;SDS011;68991;52.122;5.406;2023-06-14T09:41:18;2.42;;;1.42;;
79539;SDS011;68991;52.122;5.406;2023-06-14T09:43:46;3.22;;;1.65;;
79539;SDS011;68991;52.122;5.406;2023-06-14T09:46:13;2.33;;;1.58;;
79539;SDS011;68991;52.122;5.406;2023-06-14T09:48:47;3.33;;;1.85;;
79539;SDS011;68991;52.122;5.406;2023-06-14T09:51:13;4.10;;;1.90;;
79539;SDS011;68991;52.122;5.406;2023-06-14T09:53:42;3.47;;;1.67;;
79539;SDS011;68991;52.122;5.406;2023-06-14T09:56:10;2.42;;;1.63;;
79539;SDS011;68991;52.122;5.406;2023-06-14T09:58:37;4.15;;;1.55;;
79539;SDS011;68991;52.122;5.406;2023-06-14T10:01:06;3.08;;;1.83;;
79539;SDS011;68991;52.122;5.406;2023-06-14T10:03:35;3.65;;;1.70;;
79539;SDS011;68991;52.122;5.406;2023-06-14T10:06:24;2.13;;;1.48;;
79539;SDS011;68991;52.122;5.406;2023-06-14T10:08:53;2.97;;;1.45;;
79539;SDS011;68991;52.122;5.406;2023-06-14T10:13:50;4.55;;;1.50;;
79539;SDS011;68991;52.122;5.406;2023-06-14T10:16:23;3.10;;;1.60;;
79539;SDS011;68991;52.122;5.406;2023-06-14T10:19:00;2.75;;;1.60;;
79539;SDS011;68991;52.122;5.406;2023-06-14T10:21:55;3.97;;;1.40;;
79539;SDS011;68991;52.122;5.406;2023-06-14T10:24:29;1.95;;;1.55;;
79539;SDS011;68991;52.122;5.406;2023-06-14T10:27:09;2.13;;;1.50;;
79539;SDS011;68991;52.122;5.406;2023-06-14T10:32:22;1.95;;;1.50;;
79539;SDS011;68991;52.122;5.406;2023-06-14T10:34:55;2.45;;;1.50;;
79539;SDS011;68991;52.122;5.406;2023-06-14T10:37:22;5.18;;;1.70;;
79539;SDS011;68991;52.122;5.406;2023-06-14T10:39:50;3.92;;;1.73;;
79539;SDS011;68991;52.122;5.406;2023-06-14T10:42:17;4.97;;;1.80;;
79539;SDS011;68991;52.122;5.406;2023-06-14T10:44:50;6.70;;;1.50;;
79539;SDS011;68991;52.122;5.406;2023-06-14T10:47:23;6.88;;;1.60;;
79539;SDS011;68991;52.122;5.406;2023-06-14T10:52:33;2.83;;;1.45;;
79539;SDS011;68991;52.122;5.406;2023-06-14T10:55:18;7.05;;;1.90;;
79539;SDS011;68991;52.122;5.406;2023-06-14T10:57:49;3.28;;;1.58;;
79539;SDS011;68991;52.122;5.406;2023-06-14T11:00:25;2.83;;;1.50;;
79539;SDS011;68991;52.122;5.406;2023-06-14T11:05:59;3.28;;;1.45;;
79539;SDS011;68991;52.122;5.406;2023-06-14T11:11:32;4.65;;;1.95;;
79539;SDS011;68991;52.122;5.406;2023-06-14T11:14:01;2.97;;;1.40;;
79539;SDS011;68991;52.122;5.406;2023-06-14T11:16:28;3.38;;;1.88;;
79539;SDS011;68991;52.122;5.406;2023-06-14T11:18:55;2.83;;;1.77;;
79539;SDS011;68991;52.122;5.406;2023-06-14T11:21:22;2.38;;;1.27;;
79539;SDS011;68991;52.122;5.406;2023-06-14T11:23:51;1.90;;;1.20;;
79539;SDS011;68991;52.122;5.406;2023-06-14T11:26:28;2.08;;;1.20;;
79539;SDS011;68991;52.122;5.406;2023-06-14T11:28:56;2.08;;;1.30;;
79539;SDS011;68991;52.122;5.406;2023-06-14T11:31:24;2.10;;;1.45;;
79539;SDS011;68991;52.122;5.406;2023-06-14T11:33:53;5.00;;;1.40;;
79539;SDS011;68991;52.122;5.406;2023-06-14T11:36:21;2.13;;;1.38;;
79539;SDS011;68991;52.122;5.406;2023-06-14T11:38:47;3.50;;;1.40;;
79539;SDS011;68991;52.122;5.406;2023-06-14T11:41:14;4.47;;;2.00;;
79539;SDS011;68991;52.122;5.406;2023-06-14T11:43:40;2.70;;;1.35;;
79539;SDS011;68991;52.122;5.406;2023-06-14T11:46:13;4.10;;;1.48;;
79539;SDS011;68991;52.122;5.406;2023-06-14T11:48:42;2.42;;;1.42;;
79539;SDS011;68991;52.122;5.406;2023-06-14T11:51:09;2.95;;;1.50;;
79539;SDS011;68991;52.122;5.406;2023-06-14T11:53:35;1.95;;;1.35;;
79539;SDS011;68991;52.122;5.406;2023-06-14T11:56:02;2.78;;;1.40;;
79539;SDS011;68991;52.122;5.406;2023-06-14T11:58:29;3.35;;;1.40;;
79539;SDS011;68991;52.122;5.406;2023-06-14T12:00:56;4.43;;;1.83;;
79539;SDS011;68991;52.122;5.406;2023-06-14T12:03:23;2.50;;;1.52;;
79539;SDS011;68991;52.122;5.406;2023-06-14T12:06:07;2.15;;;1.55;;
79539;SDS011;68991;52.122;5.406;2023-06-14T12:08:35;2.13;;;1.45;;
79539;SDS011;68991;52.122;5.406;2023-06-14T12:11:10;3.58;;;1.30;;
79539;SDS011;68991;52.122;5.406;2023-06-14T12:13:37;1.92;;;1.13;;
79539;SDS011;68991;52.122;5.406;2023-06-14T12:16:09;2.30;;;1.58;;
79539;SDS011;68991;52.122;5.406;2023-06-14T12:18:37;2.67;;;1.55;;
79539;SDS011;68991;52.122;5.406;2023-06-14T12:21:08;2.85;;;1.33;;
79539;SDS011;68991;52.122;5.406;2023-06-14T12:23:41;3.35;;;1.38;;
79539;SDS011;68991;52.122;5.406;2023-06-14T12:26:15;2.45;;;1.38;;
79539;SDS011;68991;52.122;5.406;2023-06-14T12:28:44;2.50;;;1.48;;
79539;SDS011;68991;52.122;5.406;2023-06-14T12:31:12;2.05;;;1.23;;
79539;SDS011;68991;52.122;5.406;2023-06-14T12:33:39;1.80;;;1.30;;
79539;SDS011;68991;52.122;5.406;2023-06-14T12:36:07;2.45;;;1.20;;
79539;SDS011;68991;52.122;5.406;2023-06-14T12:38:35;3.53;;;1.45;;
79539;SDS011;68991;52.122;5.406;2023-06-14T12:41:02;2.22;;;1.30;;
79539;SDS011;68991;52.122;5.406;2023-06-14T12:43:29;2.35;;;1.58;;
79539;SDS011;68991;52.122;5.406;2023-06-14T12:45:56;2.22;;;1.20;;
79539;SDS011;68991;52.122;5.406;2023-06-14T12:48:22;1.92;;;1.40;;
79539;SDS011;68991;52.122;5.406;2023-06-14T12:50:49;3.42;;;1.40;;
79539;SDS011;68991;52.122;5.406;2023-06-14T12:53:15;2.90;;;1.25;;
79539;SDS011;68991;52.122;5.406;2023-06-14T12:55:43;2.60;;;1.30;;
79539;SDS011;68991;52.122;5.406;2023-06-14T12:58:10;2.17;;;1.15;;
79539;SDS011;68991;52.122;5.406;2023-06-14T13:00:38;2.95;;;1.35;;
79539;SDS011;68991;52.122;5.406;2023-06-14T13:03:05;3.35;;;1.40;;
79539;SDS011;68991;52.122;5.406;2023-06-14T13:05:32;1.55;;;1.10;;
79539;SDS011;68991;52.122;5.406;2023-06-14T13:07:59;3.05;;;1.52;;
79539;SDS011;68991;52.122;5.406;2023-06-14T13:10:26;1.50;;;1.30;;
79539;SDS011;68991;52.122;5.406;2023-06-14T13:12:54;2.25;;;1.35;;
79539;SDS011;68991;52.122;5.406;2023-06-14T13:15:20;2.17;;;1.38;;
79539;SDS011;68991;52.122;5.406;2023-06-14T13:17:47;1.70;;;1.20;;
79539;SDS011;68991;52.122;5.406;2023-06-14T13:20:15;2.55;;;1.35;;
79539;SDS011;68991;52.122;5.406;2023-06-14T13:25:11;2.40;;;1.33;;
79539;SDS011;68991;52.122;5.406;2023-06-14T13:27:38;1.70;;;1.20;;
79539;SDS011;68991;52.122;5.406;2023-06-14T13:30:05;2.88;;;1.40;;
79539;SDS011;68991;52.122;5.406;2023-06-14T13:32:32;1.92;;;1.20;;
79539;SDS011;68991;52.122;5.406;2023-06-14T13:34:59;3.67;;;1.85;;
79539;SDS011;68991;52.122;5.406;2023-06-14T13:37:26;2.08;;;1.10;;
79539;SDS011;68991;52.122;5.406;2023-06-14T13:39:52;2.00;;;1.20;;
79539;SDS011;68991;52.122;5.406;2023-06-14T13:42:18;1.83;;;1.23;;
79539;SDS011;68991;52.122;5.406;2023-06-14T13:44:45;2.28;;;1.30;;
79539;SDS011;68991;52.122;5.406;2023-06-14T13:47:11;1.80;;;1.27;;
79539;SDS011;68991;52.122;5.406;2023-06-14T13:49:38;3.70;;;1.20;;
79539;SDS011;68991;52.122;5.406;2023-06-14T13:52:04;2.63;;;1.15;;
79539;SDS011;68991;52.122;5.406;2023-06-14T13:54:31;1.90;;;1.20;;
79539;SDS011;68991;52.122;5.406;2023-06-14T13:56:58;2.40;;;1.40;;
79539;SDS011;68991;52.122;5.406;2023-06-14T13:59:25;2.25;;;1.40;;
79539;SDS011;68991;52.122;5.406;2023-06-14T14:01:51;2.55;;;1.20;;
79539;SDS011;68991;52.122;5.406;2023-06-14T14:04:18;1.67;;;1.10;;
79539;SDS011;68991;52.122;5.406;2023-06-14T14:06:45;4.22;;;1.80;;
79539;SDS011;68991;52.122;5.406;2023-06-14T14:09:14;2.75;;;1.30;;
79539;SDS011;68991;52.122;5.406;2023-06-14T14:11:41;2.45;;;1.38;;
79539;SDS011;68991;52.122;5.406;2023-06-14T14:14:08;1.65;;;1.38;;
79539;SDS011;68991;52.122;5.406;2023-06-14T14:16:36;1.50;;;1.20;;
79539;SDS011;68991;52.122;5.406;2023-06-14T14:19:03;1.60;;;1.10;;
79539;SDS011;68991;52.122;5.406;2023-06-14T14:21:30;1.70;;;1.30;;
79539;SDS011;68991;52.122;5.406;2023-06-14T14:23:57;1.88;;;1.00;;
79539;SDS011;68991;52.122;5.406;2023-06-14T14:26:23;2.33;;;1.15;;
79539;SDS011;68991;52.122;5.406;2023-06-14T14:28:51;3.15;;;1.45;;
79539;SDS011;68991;52.122;5.406;2023-06-14T14:31:18;2.10;;;1.15;;
79539;SDS011;68991;52.122;5.406;2023-06-14T14:33:44;2.10;;;1.30;;
79539;SDS011;68991;52.122;5.406;2023-06-14T14:36:11;2.60;;;1.08;;
79539;SDS011;68991;52.122;5.406;2023-06-14T14:38:37;2.58;;;0.98;;
79539;SDS011;68991;52.122;5.406;2023-06-14T14:41:04;3.20;;;1.27;;
79539;SDS011;68991;52.122;5.406;2023-06-14T14:43:30;1.95;;;1.30;;
79539;SDS011;68991;52.122;5.406;2023-06-14T14:45:57;1.70;;;1.30;;
79539;SDS011;68991;52.122;5.406;2023-06-14T14:48:24;1.63;;;1.05;;
79539;SDS011;68991;52.122;5.406;2023-06-14T14:50:51;3.00;;;1.30;;
79539;SDS011;68991;52.122;5.406;2023-06-14T14:53:17;1.70;;;1.23;;
79539;SDS011;68991;52.122;5.406;2023-06-14T14:55:44;1.92;;;1.05;;
79539;SDS011;68991;52.122;5.406;2023-06-14T14:58:12;1.98;;;1.40;;
79539;SDS011;68991;52.122;5.406;2023-06-14T15:00:39;1.40;;;1.13;;
79539;SDS011;68991;52.122;5.406;2023-06-14T15:03:05;1.98;;;1.20;;
79539;SDS011;68991;52.122;5.406;2023-06-14T15:05:32;2.13;;;1.10;;
79539;SDS011;68991;52.122;5.406;2023-06-14T15:07:58;1.55;;;1.10;;
79539;SDS011;68991;52.122;5.406;2023-06-14T15:10:24;1.98;;;1.30;;
79539;SDS011;68991;52.122;5.406;2023-06-14T15:12:51;2.15;;;1.60;;
79539;SDS011;68991;52.122;5.406;2023-06-14T15:15:17;1.77;;;1.10;;
79539;SDS011;68991;52.122;5.406;2023-06-14T15:17:44;2.17;;;1.30;;
79539;SDS011;68991;52.122;5.406;2023-06-14T15:20:11;2.67;;;1.15;;